Time,TemperatureF,DewpointF,PressureIn,WindDirection,WindDirectionDegrees,WindSpeedMPH,WindSpeedGustMPH,Humidity,HourlyPrecipIn,Conditions,Clouds,dailyrainin,SoftwareType,DateUTC
2013-08-09 00:09:00,46.5,45.1,29.94,East,94,2.0,3.0,95,0.00,,,0.00,Wunderground v.1.15,2013-08-09 06:09:00,
2013-08-09 00:14:00,46.6,45.2,29.94,ENE,69,2.0,3.0,95,0.00,,,0.00,Wunderground v.1.15,2013-08-09 06:14:00,
2013-08-09 00:24:00,46.7,45.1,29.95,East,95,1.0,2.0,94,0.00,,,0.00,Wunderground v.1.15,2013-08-09 06:24:00,
2013-08-09 00:29:00,46.9,45.5,29.95,ENE,70,1.0,3.0,95,0.00,,,0.00,Wunderground v.1.15,2013-08-09 06:29:00,
2013-08-09 00:34:00,46.9,45.3,29.95,East,87,2.0,3.0,94,0.00,,,0.00,Wunderground v.1.15,2013-08-09 06:34:00,
2013-08-09 00:39:00,46.8,45.2,29.95,East,82,3.0,3.0,94,0.00,,,0.00,Wunderground v.1.15,2013-08-09 06:39:00,
2013-08-09 00:44:00,47.0,45.1,29.95,ENE,66,4.0,4.0,93,0.00,,,0.00,Wunderground v.1.15,2013-08-09 06:44:00,
2013-08-09 00:49:00,46.9,45.0,29.96,East,87,3.0,3.0,93,0.00,,,0.00,Wunderground v.1.15,2013-08-09 06:49:00,
2013-08-09 00:54:00,46.8,44.9,29.95,East,87,2.0,3.0,93,0.00,,,0.00,Wunderground v.1.15,2013-08-09 06:54:00,
2013-08-09 00:59:00,46.8,44.9,29.95,ENE,78,3.0,3.0,93,0.00,,,0.00,Wunderground v.1.15,2013-08-09 06:59:00,
2013-08-09 01:09:00,46.5,44.3,29.95,East,93,3.0,6.0,92,0.00,,,0.00,Wunderground v.1.15,2013-08-09 07:09:00,
2013-08-09 01:14:00,46.3,44.1,29.95,East,82,3.0,6.0,92,0.00,,,0.00,Wunderground v.1.15,2013-08-09 07:14:00,
2013-08-09 01:19:00,46.2,44.3,29.95,ENE,75,2.0,3.0,93,0.00,,,0.00,Wunderground v.1.15,2013-08-09 07:19:00,
2013-08-09 01:24:00,46.2,44.3,29.95,East,82,4.0,6.0,93,0.00,,,0.00,Wunderground v.1.15,2013-08-09 07:24:00,
2013-08-09 01:29:00,46.3,44.1,29.95,East,95,5.0,5.0,92,0.00,,,0.00,Wunderground v.1.15,2013-08-09 07:29:00,
2013-08-09 01:34:00,46.1,43.9,29.95,ENE,76,3.0,9.0,92,0.00,,,0.00,Wunderground v.1.15,2013-08-09 07:34:00,
2013-08-09 01:39:00,46.1,43.9,29.95,ESE,118,3.0,3.0,92,0.00,,,0.00,Wunderground v.1.15,2013-08-09 07:39:00,
2013-08-09 01:44:00,45.9,43.7,29.96,East,84,3.0,5.0,92,0.00,,,0.00,Wunderground v.1.15,2013-08-09 07:44:00,
2013-08-09 01:54:00,46.0,43.8,29.96,East,94,4.0,9.0,92,0.00,,,0.00,Wunderground v.1.15,2013-08-09 07:54:00,
2013-08-09 01:59:00,45.9,43.7,29.96,East,81,3.0,3.0,92,0.00,,,0.00,Wunderground v.1.15,2013-08-09 07:59:00,
2013-08-09 02:09:00,45.7,43.5,29.97,East,89,3.0,5.0,92,0.00,,,0.00,Wunderground v.1.15,2013-08-09 08:09:00,
2013-08-09 02:14:00,45.6,43.4,29.97,ENE,73,4.0,5.0,92,0.00,,,0.00,Wunderground v.1.15,2013-08-09 08:14:00,
2013-08-09 02:19:00,45.6,43.1,29.97,ENE,76,5.0,5.0,91,0.00,,,0.00,Wunderground v.1.15,2013-08-09 08:19:00,
2013-08-09 02:29:00,45.4,42.9,29.97,ESE,115,4.0,4.0,91,0.00,,,0.00,Wunderground v.1.15,2013-08-09 08:29:00,
2013-08-09 02:34:00,45.2,43.0,29.97,East,84,3.0,10.0,92,0.00,,,0.00,Wunderground v.1.15,2013-08-09 08:34:00,
2013-08-09 02:39:00,45.0,42.8,29.97,East,93,2.0,10.0,92,0.00,,,0.00,Wunderground v.1.15,2013-08-09 08:39:00,
2013-08-09 02:49:00,44.8,42.6,29.97,East,84,4.0,10.0,92,0.00,,,0.00,Wunderground v.1.15,2013-08-09 08:49:00,
2013-08-09 02:54:00,44.7,42.5,29.97,East,99,4.0,10.0,92,0.00,,,0.00,Wunderground v.1.15,2013-08-09 08:54:00,
2013-08-09 02:59:00,44.7,42.5,29.97,East,93,3.0,3.0,92,0.00,,,0.00,Wunderground v.1.15,2013-08-09 08:59:00,
2013-08-09 03:09:00,44.7,42.5,29.97,East,86,5.0,5.0,92,0.00,,,0.00,Wunderground v.1.15,2013-08-09 09:09:00,
2013-08-09 03:14:00,44.7,42.5,29.98,East,82,5.0,5.0,92,0.00,,,0.00,Wunderground v.1.15,2013-08-09 09:14:00,
2013-08-09 03:24:00,44.6,42.4,29.98,ENE,72,4.0,4.0,92,0.00,,,0.00,Wunderground v.1.15,2013-08-09 09:24:00,
2013-08-09 03:29:00,44.6,42.4,29.98,ENE,75,5.0,5.0,92,0.00,,,0.00,Wunderground v.1.15,2013-08-09 09:29:00,
2013-08-09 03:34:00,44.5,42.3,29.98,East,80,4.0,6.0,92,0.00,,,0.00,Wunderground v.1.15,2013-08-09 09:34:00,
2013-08-09 03:39:00,44.4,42.2,29.98,East,86,4.0,9.0,92,0.00,,,0.00,Wunderground v.1.15,2013-08-09 09:39:00,
2013-08-09 03:44:00,44.5,42.3,29.98,ENE,70,5.0,9.0,92,0.00,,,0.00,Wunderground v.1.15,2013-08-09 09:44:00,
2013-08-09 03:54:00,44.5,42.0,29.97,NE,56,4.0,9.0,91,0.00,,,0.00,Wunderground v.1.15,2013-08-09 09:54:00,
2013-08-09 03:59:00,44.5,42.0,29.98,East,101,4.0,8.0,91,0.00,,,0.00,Wunderground v.1.15,2013-08-09 09:59:00,
2013-08-09 04:09:00,44.3,41.8,29.97,East,85,6.0,6.0,91,0.00,,,0.00,Wunderground v.1.15,2013-08-09 10:09:00,
2013-08-09 04:14:00,44.1,41.6,29.97,ENE,61,4.0,6.0,91,0.00,,,0.00,Wunderground v.1.15,2013-08-09 10:14:00,
2013-08-09 04:19:00,44.0,41.5,29.97,ESE,119,3.0,4.0,91,0.00,,,0.00,Wunderground v.1.15,2013-08-09 10:19:00,
2013-08-09 04:29:00,44.0,41.5,29.97,ENE,77,6.0,6.0,91,0.00,,,0.00,Wunderground v.1.15,2013-08-09 10:29:00,
2013-08-09 04:39:00,43.8,41.3,29.97,East,82,4.0,4.0,91,0.00,,,0.00,Wunderground v.1.15,2013-08-09 10:39:00,
2013-08-09 04:44:00,43.9,41.4,29.97,ENE,70,4.0,5.0,91,0.00,,,0.00,Wunderground v.1.15,2013-08-09 10:44:00,
2013-08-09 04:49:00,43.9,41.4,29.97,East,92,5.0,9.0,91,0.00,,,0.00,Wunderground v.1.15,2013-08-09 10:49:00,
2013-08-09 04:54:00,43.7,41.2,29.97,East,99,6.0,9.0,91,0.00,,,0.00,Wunderground v.1.15,2013-08-09 10:54:00,
2013-08-09 04:59:00,43.7,41.2,29.98,ENE,76,6.0,6.0,91,0.00,,,0.00,Wunderground v.1.15,2013-08-09 10:59:00,
2013-08-09 05:09:00,43.6,41.1,29.98,East,87,6.0,7.0,91,0.00,,,0.00,Wunderground v.1.15,2013-08-09 11:09:00,
2013-08-09 05:14:00,43.6,41.1,29.98,East,81,6.0,7.0,91,0.00,,,0.00,Wunderground v.1.15,2013-08-09 11:14:00,
2013-08-09 05:19:00,43.5,40.8,29.98,East,83,6.0,8.0,90,0.00,,,0.00,Wunderground v.1.15,2013-08-09 11:19:00,
2013-08-09 05:24:00,43.5,40.8,29.98,ENE,74,6.0,8.0,90,0.00,,,0.00,Wunderground v.1.15,2013-08-09 11:24:00,
2013-08-09 05:29:00,43.4,40.7,29.98,East,80,5.0,7.0,90,0.00,,,0.00,Wunderground v.1.15,2013-08-09 11:29:00,
2013-08-09 05:34:00,43.3,40.8,29.98,ENE,78,5.0,11.0,91,0.00,,,0.00,Wunderground v.1.15,2013-08-09 11:34:00,
2013-08-09 05:44:00,43.4,40.7,29.98,NE,48,6.0,11.0,90,0.00,,,0.00,Wunderground v.1.15,2013-08-09 11:44:00,
2013-08-09 05:49:00,43.4,40.7,29.98,NE,53,6.0,11.0,90,0.00,,,0.00,Wunderground v.1.15,2013-08-09 11:49:00,
2013-08-09 05:59:00,43.4,40.7,29.99,ESE,113,6.0,6.0,90,0.00,,,0.00,Wunderground v.1.15,2013-08-09 11:59:00,
2013-08-09 06:09:00,43.2,40.5,29.99,ENE,75,5.0,5.0,90,0.00,,,0.00,Wunderground v.1.15,2013-08-09 12:09:00,
2013-08-09 06:19:00,43.1,40.4,30.00,ESE,112,5.0,5.0,90,0.00,,,0.00,Wunderground v.1.15,2013-08-09 12:19:00,
2013-08-09 06:24:00,43.1,40.4,30.00,ENE,78,6.0,11.0,90,0.00,,,0.00,Wunderground v.1.15,2013-08-09 12:24:00,
2013-08-09 06:34:00,43.0,40.3,30.00,East,86,8.0,14.0,90,0.00,,,0.00,Wunderground v.1.15,2013-08-09 12:34:00,
2013-08-09 06:39:00,43.0,40.3,30.01,East,98,8.0,8.0,90,0.00,,,0.00,Wunderground v.1.15,2013-08-09 12:39:00,
2013-08-09 06:44:00,42.9,40.2,30.01,ENE,73,7.0,14.0,90,0.00,,,0.00,Wunderground v.1.15,2013-08-09 12:44:00,
2013-08-09 06:54:00,42.9,40.2,30.01,East,88,6.0,14.0,90,0.00,,,0.00,Wunderground v.1.15,2013-08-09 12:54:00,
2013-08-09 06:59:00,42.9,40.2,30.01,East,98,7.0,9.0,90,0.00,,,0.00,Wunderground v.1.15,2013-08-09 12:59:00,
2013-08-09 07:09:00,42.9,40.2,30.01,East,82,7.0,7.0,90,0.00,,,0.00,Wunderground v.1.15,2013-08-09 13:09:00,
2013-08-09 07:14:00,42.8,40.1,30.01,East,94,6.0,7.0,90,0.00,,,0.00,Wunderground v.1.15,2013-08-09 13:14:00,
2013-08-09 07:19:00,42.9,40.2,30.01,ENE,72,6.0,8.0,90,0.00,,,0.00,Wunderground v.1.15,2013-08-09 13:19:00,
2013-08-09 07:29:00,43.4,40.7,30.02,ENE,57,7.0,7.0,90,0.00,,,0.00,Wunderground v.1.15,2013-08-09 13:29:00,
2013-08-09 07:34:00,43.5,40.8,30.01,East,92,7.0,16.0,90,0.00,,,0.00,Wunderground v.1.15,2013-08-09 13:34:00,
2013-08-09 07:39:00,43.5,40.8,30.02,East,90,6.0,16.0,90,0.00,,,0.00,Wunderground v.1.15,2013-08-09 13:39:00,
2013-08-09 07:44:00,43.5,40.8,30.02,East,81,6.0,16.0,90,0.00,,,0.00,Wunderground v.1.15,2013-08-09 13:44:00,
2013-08-09 07:49:00,43.7,41.0,30.02,ENE,61,6.0,16.0,90,0.00,,,0.00,Wunderground v.1.15,2013-08-09 13:49:00,
2013-08-09 07:59:00,44.3,41.6,30.02,East,90,5.0,6.0,90,0.00,,,0.00,Wunderground v.1.15,2013-08-09 13:59:00,
2013-08-09 08:09:00,45.0,42.2,30.02,ENE,65,5.0,7.0,90,0.00,,,0.00,Wunderground v.1.15,2013-08-09 14:09:00,
2013-08-09 08:14:00,45.4,42.6,30.02,ENE,64,5.0,7.0,90,0.00,,,0.00,Wunderground v.1.15,2013-08-09 14:14:00,
2013-08-09 08:24:00,46.7,43.6,30.02,ENE,71,5.0,5.0,89,0.00,,,0.00,Wunderground v.1.15,2013-08-09 14:24:00,
2013-08-09 08:29:00,47.3,44.2,30.02,ENE,68,4.0,4.0,89,0.00,,,0.00,Wunderground v.1.15,2013-08-09 14:29:00,
2013-08-09 08:39:00,48.3,44.9,30.02,East,83,3.0,14.0,88,0.00,,,0.00,Wunderground v.1.15,2013-08-09 14:39:00,
2013-08-09 08:44:00,48.7,45.6,30.02,ENE,65,3.0,14.0,89,0.00,,,0.00,Wunderground v.1.15,2013-08-09 14:44:00,
2013-08-09 08:49:00,49.5,45.8,30.01,ENE,74,3.0,3.0,87,0.00,,,0.00,Wunderground v.1.15,2013-08-09 14:49:00,
2013-08-09 08:54:00,50.0,46.3,30.01,ENE,74,3.0,14.0,87,0.00,,,0.00,Wunderground v.1.15,2013-08-09 14:54:00,
2013-08-09 08:59:00,50.5,46.5,30.01,ENE,74,1.0,1.0,86,0.00,,,0.00,Wunderground v.1.15,2013-08-09 14:59:00,
2013-08-09 09:09:00,51.0,47.0,30.00,ENE,74,0.0,0.0,86,0.00,,,0.00,Wunderground v.1.15,2013-08-09 15:09:00,
2013-08-09 09:14:00,51.7,47.0,30.01,ENE,74,0.0,0.0,84,0.00,,,0.00,Wunderground v.1.15,2013-08-09 15:14:00,
2013-08-09 09:19:00,52.7,47.4,30.00,ENE,74,0.0,0.0,82,0.00,,,0.00,Wunderground v.1.15,2013-08-09 15:19:00,
2013-08-09 09:29:00,53.8,47.8,30.00,ENE,74,0.0,0.0,80,0.00,,,0.00,Wunderground v.1.15,2013-08-09 15:29:00,
2013-08-09 09:34:00,54.7,48.3,30.00,ENE,74,0.0,9.0,79,0.00,,,0.00,Wunderground v.1.15,2013-08-09 15:34:00,
2013-08-09 09:39:00,56.0,49.2,30.00,ENE,74,0.0,9.0,78,0.00,,,0.00,Wunderground v.1.15,2013-08-09 15:39:00,
2013-08-09 09:44:00,57.5,49.3,30.00,ENE,74,0.0,9.0,74,0.00,,,0.00,Wunderground v.1.15,2013-08-09 15:44:00,
2013-08-09 09:49:00,59.7,48.3,30.00,NNW,328,1.0,9.0,66,0.00,,,0.00,Wunderground v.1.15,2013-08-09 15:49:00,
2013-08-09 09:54:00,61.2,45.8,30.00,NW,311,2.0,9.0,57,0.00,,,0.00,Wunderground v.1.15,2013-08-09 15:54:00,
2013-08-09 10:00:00,62.0,45.2,30.01,NNW,329,3.0,3.0,54,0.00,,,0.00,Wunderground v.1.15,2013-08-09 16:00:00,
2013-08-09 10:09:00,62.4,45.0,30.00,NW,325,3.0,5.0,53,0.00,,,0.00,Wunderground v.1.15,2013-08-09 16:09:00,
2013-08-09 10:14:00,62.4,45.0,30.00,NW,318,3.0,5.0,53,0.00,,,0.00,Wunderground v.1.15,2013-08-09 16:14:00,
2013-08-09 10:19:00,62.6,46.2,30.01,NNW,342,3.0,3.0,55,0.00,,,0.00,Wunderground v.1.15,2013-08-09 16:19:00,
2013-08-09 10:24:00,62.8,46.9,30.00,NNW,331,3.0,3.0,56,0.00,,,0.00,Wunderground v.1.15,2013-08-09 16:24:00,
2013-08-09 10:29:00,62.9,46.0,30.00,NNW,336,4.0,5.0,54,0.00,,,0.00,Wunderground v.1.15,2013-08-09 16:29:00,
2013-08-09 10:39:00,63.8,47.3,30.00,NNW,327,3.0,7.0,55,0.00,,,0.00,Wunderground v.1.15,2013-08-09 16:39:00,
2013-08-09 10:44:00,63.8,45.8,30.00,North,355,4.0,7.0,52,0.00,,,0.00,Wunderground v.1.15,2013-08-09 16:44:00,
2013-08-09 10:49:00,63.8,46.3,30.00,NNW,333,4.0,4.0,53,0.00,,,0.00,Wunderground v.1.15,2013-08-09 16:49:00,
2013-08-09 10:54:00,64.2,46.7,30.00,NNW,336,3.0,6.0,53,0.00,,,0.00,Wunderground v.1.15,2013-08-09 16:54:00,
2013-08-09 10:59:00,64.4,46.9,30.00,NNW,327,4.0,4.0,53,0.00,,,0.00,Wunderground v.1.15,2013-08-09 16:59:00,
2013-08-09 11:09:00,64.9,47.4,30.00,NNW,328,3.0,6.0,53,0.00,,,0.00,Wunderground v.1.15,2013-08-09 17:09:00,
2013-08-09 11:14:00,65.2,47.1,30.00,NW,323,3.0,6.0,52,0.00,,,0.00,Wunderground v.1.15,2013-08-09 17:14:00,
2013-08-09 11:19:00,65.2,46.6,30.00,NNW,329,4.0,4.0,51,0.00,,,0.00,Wunderground v.1.15,2013-08-09 17:19:00,
2013-08-09 11:24:00,65.5,46.4,30.00,NNW,341,4.0,7.0,50,0.00,,,0.00,Wunderground v.1.15,2013-08-09 17:24:00,
2013-08-09 11:29:00,65.3,45.6,30.00,NNW,329,4.0,4.0,49,0.00,,,0.00,Wunderground v.1.15,2013-08-09 17:29:00,
2013-08-09 11:34:00,65.9,46.7,30.00,NW,321,4.0,9.0,50,0.00,,,0.00,Wunderground v.1.15,2013-08-09 17:34:00,
2013-08-09 11:39:00,66.3,46.0,30.00,NW,321,3.0,9.0,48,0.00,,,0.00,Wunderground v.1.15,2013-08-09 17:39:00,
2013-08-09 11:49:00,66.7,45.3,30.00,NNE,27,3.0,3.0,46,0.00,,,0.00,Wunderground v.1.15,2013-08-09 17:49:00,
2013-08-09 11:54:00,66.7,44.7,30.00,West,267,4.0,6.0,45,0.00,,,0.00,Wunderground v.1.15,2013-08-09 17:54:00,
2013-08-09 11:59:00,67.4,45.3,29.99,NNW,345,3.0,7.0,45,0.00,,,0.00,Wunderground v.1.15,2013-08-09 17:59:00,
2013-08-09 12:09:00,67.5,42.3,29.99,NW,321,3.0,6.0,40,0.00,,,0.00,Wunderground v.1.15,2013-08-09 18:09:00,
2013-08-09 12:14:00,67.3,40.1,29.99,WSW,239,4.0,6.0,37,0.00,,,0.00,Wunderground v.1.15,2013-08-09 18:14:00,
2013-08-09 12:24:00,68.0,43.4,29.99,North,355,3.0,4.0,41,0.00,,,0.00,Wunderground v.1.15,2013-08-09 18:24:00,
2013-08-09 12:29:00,68.2,42.3,29.99,NNW,327,4.0,4.0,39,0.00,,,0.00,Wunderground v.1.15,2013-08-09 18:29:00,
2013-08-09 12:34:00,67.9,42.7,29.99,NW,323,5.0,8.0,40,0.00,,,0.00,Wunderground v.1.15,2013-08-09 18:34:00,
2013-08-09 12:44:00,68.8,44.8,29.99,NNW,333,3.0,9.0,42,0.00,,,0.00,Wunderground v.1.15,2013-08-09 18:44:00,
2013-08-09 12:49:00,69.0,41.6,29.98,NNW,327,3.0,3.0,37,0.00,,,0.00,Wunderground v.1.15,2013-08-09 18:49:00,
2013-08-09 12:54:00,70.2,44.7,29.99,NW,324,3.0,7.0,40,0.00,,,0.00,Wunderground v.1.15,2013-08-09 18:54:00,
2013-08-09 13:00:00,69.9,43.1,29.98,NNW,341,3.0,5.0,38,0.00,,,0.00,Wunderground v.1.15,2013-08-09 19:00:00,
2013-08-09 13:09:00,69.5,42.1,29.99,NNW,333,4.0,5.0,37,0.00,,,0.00,Wunderground v.1.15,2013-08-09 19:09:00,
2013-08-09 13:19:00,69.8,43.0,29.98,NW,311,2.0,2.0,38,0.00,,,0.00,Wunderground v.1.15,2013-08-09 19:19:00,
2013-08-09 13:24:00,70.4,43.6,29.98,West,266,2.0,3.0,38,0.00,,,0.00,Wunderground v.1.15,2013-08-09 19:24:00,
2013-08-09 13:29:00,72.3,44.6,29.98,WNW,288,1.0,5.0,37,0.00,,,0.00,Wunderground v.1.15,2013-08-09 19:29:00,
2013-08-09 13:34:00,71.3,42.2,29.97,WSW,244,2.0,10.0,35,0.00,,,0.00,Wunderground v.1.15,2013-08-09 19:34:00,
2013-08-09 13:39:00,70.2,43.4,29.97,WNW,288,3.0,10.0,38,0.00,,,0.00,Wunderground v.1.15,2013-08-09 19:39:00,
2013-08-09 13:44:00,70.4,39.9,29.97,NE,43,3.0,10.0,33,0.00,,,0.00,Wunderground v.1.15,2013-08-09 19:44:00,
2013-08-09 13:49:00,71.0,44.1,29.97,NW,325,4.0,4.0,38,0.00,,,0.00,Wunderground v.1.15,2013-08-09 19:49:00,
2013-08-09 13:59:00,71.4,40.8,29.97,WNW,294,2.0,2.0,33,0.00,,,0.00,Wunderground v.1.15,2013-08-09 19:59:00,
2013-08-09 14:09:00,71.1,42.8,29.97,NNE,16,4.0,4.0,36,0.00,,,0.00,Wunderground v.1.15,2013-08-09 20:09:00,
2013-08-09 14:14:00,72.2,39.9,29.97,SSE,163,4.0,4.0,31,0.00,,,0.00,Wunderground v.1.15,2013-08-09 20:14:00,
2013-08-09 14:19:00,71.6,36.8,29.97,NNW,333,3.0,4.0,28,0.00,,,0.00,Wunderground v.1.15,2013-08-09 20:19:00,
2013-08-09 14:24:00,71.6,38.5,29.96,NNW,338,3.0,4.0,30,0.00,,,0.00,Wunderground v.1.15,2013-08-09 20:24:00,
2013-08-09 14:29:00,71.8,37.8,29.96,NNW,327,4.0,4.0,29,0.00,,,0.00,Wunderground v.1.15,2013-08-09 20:29:00,
2013-08-09 14:34:00,71.0,38.0,29.97,West,269,5.0,5.0,30,0.00,,,0.00,Wunderground v.1.15,2013-08-09 20:34:00,
2013-08-09 14:39:00,70.7,37.7,29.97,NNW,336,5.0,5.0,30,0.00,,,0.00,Wunderground v.1.15,2013-08-09 20:39:00,
2013-08-09 14:44:00,71.2,37.3,29.97,NNW,331,4.0,9.0,29,0.00,,,0.00,Wunderground v.1.15,2013-08-09 20:44:00,
2013-08-09 14:54:00,71.3,38.2,29.97,NNW,331,4.0,9.0,30,0.00,,,0.00,Wunderground v.1.15,2013-08-09 20:54:00,
2013-08-09 14:59:00,71.1,40.5,29.98,NNW,334,5.0,5.0,33,0.00,,,0.00,Wunderground v.1.15,2013-08-09 20:59:00,
2013-08-09 15:09:00,69.8,40.9,29.98,NW,323,5.0,9.0,35,0.00,,,0.00,Wunderground v.1.15,2013-08-09 21:09:00,
2013-08-09 15:14:00,69.0,40.2,29.98,NNW,332,5.0,9.0,35,0.00,,,0.00,Wunderground v.1.15,2013-08-09 21:14:00,
2013-08-09 15:24:00,68.7,41.4,29.98,NW,323,4.0,5.0,37,0.00,,,0.00,Wunderground v.1.15,2013-08-09 21:24:00,
2013-08-09 15:29:00,68.1,40.1,29.97,West,277,4.0,4.0,36,0.00,,,0.00,Wunderground v.1.15,2013-08-09 21:29:00,
2013-08-09 15:39:00,68.3,39.6,29.97,NNW,329,4.0,11.0,35,0.00,,,0.00,Wunderground v.1.15,2013-08-09 21:39:00,
2013-08-09 15:44:00,68.1,41.5,29.96,NW,315,3.0,11.0,38,0.00,,,0.00,Wunderground v.1.15,2013-08-09 21:44:00,
2013-08-09 15:49:00,68.1,38.7,29.97,NE,49,3.0,11.0,34,0.00,,,0.00,Wunderground v.1.15,2013-08-09 21:49:00,
2013-08-09 15:54:00,68.1,37.9,29.97,NNW,341,3.0,11.0,33,0.00,,,0.00,Wunderground v.1.15,2013-08-09 21:54:00,
2013-08-09 15:59:00,68.1,36.3,29.96,NNW,331,4.0,6.0,31,0.00,,,0.00,Wunderground v.1.15,2013-08-09 21:59:00,
2013-08-09 16:09:00,67.5,35.8,29.96,SE,142,3.0,4.0,31,0.00,,,0.00,Wunderground v.1.15,2013-08-09 22:09:00,
2013-08-09 16:14:00,67.2,36.3,29.95,NNW,329,3.0,4.0,32,0.00,,,0.00,Wunderground v.1.15,2013-08-09 22:14:00,
2013-08-09 16:19:00,67.1,34.6,29.95,NNW,333,4.0,4.0,30,0.00,,,0.00,Wunderground v.1.15,2013-08-09 22:19:00,
2013-08-09 16:24:00,67.1,35.4,29.95,NNW,334,3.0,4.0,31,0.00,,,0.00,Wunderground v.1.15,2013-08-09 22:24:00,
2013-08-09 16:34:00,68.2,36.4,29.96,NNW,330,3.0,12.0,31,0.00,,,0.00,Wunderground v.1.15,2013-08-09 22:34:00,
2013-08-09 16:39:00,68.6,35.9,29.96,NNW,331,2.0,12.0,30,0.00,,,0.00,Wunderground v.1.15,2013-08-09 22:39:00,
2013-08-09 16:44:00,68.8,35.2,29.96,ENE,59,2.0,12.0,29,0.00,,,0.00,Wunderground v.1.15,2013-08-09 22:44:00,
2013-08-09 16:49:00,69.2,36.4,29.96,West,278,2.0,12.0,30,0.00,,,0.00,Wunderground v.1.15,2013-08-09 22:49:00,
2013-08-09 16:54:00,69.8,34.3,29.96,SSE,163,2.0,12.0,27,0.00,,,0.00,Wunderground v.1.15,2013-08-09 22:54:00,
2013-08-09 17:00:00,70.1,35.5,29.96,NNW,338,1.0,2.0,28,0.00,,,0.00,Wunderground v.1.15,2013-08-09 23:00:00,
2013-08-09 17:09:00,70.9,34.3,29.95,NW,326,3.0,3.0,26,0.00,,,0.00,Wunderground v.1.15,2013-08-09 23:09:00,
2013-08-09 17:14:00,70.7,35.1,29.95,NW,321,5.0,5.0,27,0.00,,,0.00,Wunderground v.1.15,2013-08-09 23:14:00,
2013-08-09 17:24:00,70.6,35.9,29.95,NNW,338,5.0,5.0,28,0.00,,,0.00,Wunderground v.1.15,2013-08-09 23:24:00,
2013-08-09 17:29:00,70.7,39.4,29.95,SW,222,4.0,4.0,32,0.00,,,0.00,Wunderground v.1.15,2013-08-09 23:29:00,
2013-08-09 17:34:00,70.7,37.7,29.95,NNW,337,3.0,5.0,30,0.00,,,0.00,Wunderground v.1.15,2013-08-09 23:34:00,
2013-08-09 17:39:00,70.2,35.5,29.95,NW,321,4.0,9.0,28,0.00,,,0.00,Wunderground v.1.15,2013-08-09 23:39:00,
2013-08-09 17:44:00,69.7,36.0,29.95,NNW,341,5.0,9.0,29,0.00,,,0.00,Wunderground v.1.15,2013-08-09 23:44:00,
2013-08-09 17:54:00,69.7,36.0,29.95,NW,322,4.0,7.0,29,0.00,,,0.00,Wunderground v.1.15,2013-08-09 23:54:00,
2013-08-09 17:59:00,70.0,36.3,29.94,NW,321,3.0,5.0,29,0.00,,,0.00,Wunderground v.1.15,2013-08-09 23:59:00,
2013-08-09 18:09:00,70.3,36.5,29.94,NW,325,2.0,2.0,29,0.00,,,0.00,Wunderground v.1.15,2013-08-10 00:09:00,
2013-08-09 18:14:00,70.3,36.5,29.94,NNW,337,3.0,4.0,29,0.00,,,0.00,Wunderground v.1.15,2013-08-10 00:14:00,
2013-08-09 18:19:00,70.4,34.8,29.94,NNW,337,4.0,5.0,27,0.00,,,0.00,Wunderground v.1.15,2013-08-10 00:19:00,
2013-08-09 18:24:00,70.2,34.6,29.94,NNW,329,4.0,5.0,27,0.00,,,0.00,Wunderground v.1.15,2013-08-10 00:24:00,
2013-08-09 18:34:00,69.1,38.8,29.93,NNW,332,1.0,12.0,33,0.00,,,0.00,Wunderground v.1.15,2013-08-10 00:34:00,
2013-08-09 18:39:00,68.0,40.0,29.93,NNW,334,1.0,12.0,36,0.00,,,0.00,Wunderground v.1.15,2013-08-10 00:39:00,
2013-08-09 18:44:00,67.6,39.0,29.93,West,277,2.0,12.0,35,0.00,,,0.00,Wunderground v.1.15,2013-08-10 00:44:00,
2013-08-09 18:49:00,67.7,38.3,29.94,NNW,334,2.0,2.0,34,0.00,,,0.00,Wunderground v.1.15,2013-08-10 00:49:00,
2013-08-09 18:54:00,67.6,38.2,29.93,NW,324,1.0,12.0,34,0.00,,,0.00,Wunderground v.1.15,2013-08-10 00:54:00,
2013-08-09 19:00:00,67.3,39.4,29.94,NNW,331,1.0,1.0,36,0.00,,,0.00,Wunderground v.1.15,2013-08-10 01:00:00,
2013-08-09 19:09:00,65.8,38.8,29.94,West,264,1.0,4.0,37,0.00,,,0.00,Wunderground v.1.15,2013-08-10 01:09:00,
2013-08-09 19:14:00,65.0,40.1,29.95,SW,231,3.0,4.0,40,0.00,,,0.00,Wunderground v.1.15,2013-08-10 01:14:00,
2013-08-09 19:19:00,64.8,40.5,29.96,WNW,291,4.0,4.0,41,0.00,,,0.00,Wunderground v.1.15,2013-08-10 01:19:00,
2013-08-09 19:24:00,64.7,41.1,29.96,SW,222,3.0,4.0,42,0.00,,,0.00,Wunderground v.1.15,2013-08-10 01:24:00,
2013-08-09 19:29:00,64.1,41.1,29.96,West,262,2.0,7.0,43,0.00,,,0.00,Wunderground v.1.15,2013-08-10 01:29:00,
2013-08-09 19:39:00,64.0,41.0,29.97,SW,229,2.0,9.0,43,0.00,,,0.00,Wunderground v.1.15,2013-08-10 01:39:00,
2013-08-09 19:49:00,63.5,41.8,29.98,South,172,1.0,1.0,45,0.00,,,0.00,Wunderground v.1.15,2013-08-10 01:49:00,
2013-08-09 19:54:00,63.3,45.9,29.98,ENE,69,2.0,2.0,53,0.00,,,0.00,Wunderground v.1.15,2013-08-10 01:54:00,
2013-08-09 19:59:00,62.8,47.8,29.98,ENE,59,2.0,7.0,58,0.00,,,0.00,Wunderground v.1.15,2013-08-10 01:59:00,
2013-08-09 20:09:00,61.5,48.4,29.98,West,267,2.0,3.0,62,0.00,,,0.00,Wunderground v.1.15,2013-08-10 02:09:00,
2013-08-09 20:14:00,60.9,49.1,29.98,ENE,71,2.0,3.0,65,0.00,,,0.00,Wunderground v.1.15,2013-08-10 02:14:00,
2013-08-09 20:24:00,60.3,48.5,29.98,NW,304,2.0,2.0,65,0.00,,,0.00,Wunderground v.1.15,2013-08-10 02:24:00,
2013-08-09 20:29:00,60.2,48.4,29.98,SW,221,1.0,1.0,65,0.00,,,0.00,Wunderground v.1.15,2013-08-10 02:29:00,
2013-08-09 20:34:00,60.0,48.2,29.98,NNE,32,1.0,10.0,65,0.00,,,0.00,Wunderground v.1.15,2013-08-10 02:34:00,
2013-08-09 20:39:00,59.8,48.4,29.98,ENE,73,2.0,10.0,66,0.00,,,0.00,Wunderground v.1.15,2013-08-10 02:39:00,
2013-08-09 20:49:00,59.5,48.1,29.99,ENE,78,3.0,10.0,66,0.00,,,0.00,Wunderground v.1.15,2013-08-10 02:49:00,
2013-08-09 20:54:00,59.3,48.3,29.99,ENE,63,4.0,10.0,67,0.00,,,0.00,Wunderground v.1.15,2013-08-10 02:54:00,
2013-08-09 21:00:00,59.1,48.5,29.99,ENE,70,4.0,4.0,68,0.00,,,0.00,Wunderground v.1.15,2013-08-10 03:00:00,
2013-08-09 21:09:00,58.7,48.6,29.99,ENE,59,3.0,3.0,69,0.00,,,0.00,Wunderground v.1.15,2013-08-10 03:09:00,
2013-08-09 21:14:00,58.7,48.2,29.99,NE,53,4.0,4.0,68,0.00,,,0.00,Wunderground v.1.15,2013-08-10 03:14:00,
2013-08-09 21:24:00,58.6,47.3,30.00,ENE,67,4.0,5.0,66,0.00,,,0.00,Wunderground v.1.15,2013-08-10 03:24:00,
2013-08-09 21:34:00,58.6,46.5,30.00,ESE,112,4.0,6.0,64,0.00,,,0.00,Wunderground v.1.15,2013-08-10 03:34:00,
2013-08-09 21:39:00,58.6,46.9,30.00,East,88,4.0,6.0,65,0.00,,,0.00,Wunderground v.1.15,2013-08-10 03:39:00,
2013-08-09 21:44:00,58.5,46.8,30.00,ESE,102,5.0,6.0,65,0.00,,,0.00,Wunderground v.1.15,2013-08-10 03:44:00,
2013-08-09 21:49:00,58.4,47.1,30.00,NNW,338,4.0,4.0,66,0.00,,,0.00,Wunderground v.1.15,2013-08-10 03:49:00,
2013-08-09 22:00:00,58.5,47.6,30.01,East,83,3.0,6.0,67,0.00,,,0.00,Wunderground v.1.15,2013-08-10 04:00:00,
2013-08-09 22:04:00,58.5,47.6,30.01,ENE,71,5.0,6.0,67,0.00,,,0.00,Wunderground v.1.15,2013-08-10 04:04:00,
2013-08-09 22:09:00,58.5,48.0,30.01,East,86,5.0,5.0,68,0.00,,,0.00,Wunderground v.1.15,2013-08-10 04:09:00,
2013-08-09 22:14:00,58.4,47.9,30.02,East,82,4.0,5.0,68,0.00,,,0.00,Wunderground v.1.15,2013-08-10 04:14:00,
2013-08-09 22:19:00,58.4,48.3,30.01,SSW,212,4.0,4.0,69,0.00,,,0.00,Wunderground v.1.15,2013-08-10 04:19:00,
2013-08-09 22:24:00,58.3,48.2,30.02,ENE,63,3.0,4.0,69,0.00,,,0.00,Wunderground v.1.15,2013-08-10 04:24:00,
2013-08-09 22:29:00,58.2,48.5,30.01,SW,215,2.0,2.0,70,0.00,,,0.00,Wunderground v.1.15,2013-08-10 04:29:00,
2013-08-09 22:34:00,58.1,48.4,30.01,East,82,2.0,11.0,70,0.00,,,0.00,Wunderground v.1.15,2013-08-10 04:34:00,
2013-08-09 22:39:00,58.0,48.6,30.01,ENE,57,2.0,11.0,71,0.00,,,0.00,Wunderground v.1.15,2013-08-10 04:39:00,
2013-08-09 22:44:00,58.0,48.6,30.01,ENE,70,2.0,11.0,71,0.00,,,0.00,Wunderground v.1.15,2013-08-10 04:44:00,
2013-08-09 22:49:00,57.9,48.6,30.01,NE,54,2.0,2.0,71,0.00,,,0.00,Wunderground v.1.15,2013-08-10 04:49:00,
2013-08-09 22:54:00,57.9,48.6,30.01,ESE,108,2.0,11.0,71,0.00,,,0.00,Wunderground v.1.15,2013-08-10 04:54:00,
2013-08-09 23:00:00,57.9,48.2,30.01,ENE,69,3.0,3.0,70,0.00,,,0.00,Wunderground v.1.15,2013-08-10 05:00:00,
2013-08-09 23:09:00,57.5,48.5,30.01,NNE,29,2.0,2.0,72,0.00,,,0.00,Wunderground v.1.15,2013-08-10 05:09:00,
2013-08-09 23:14:00,57.3,48.3,30.01,East,80,1.0,2.0,72,0.00,,,0.00,Wunderground v.1.15,2013-08-10 05:14:00,
2013-08-09 23:19:00,57.0,48.4,30.02,ESE,111,1.0,3.0,73,0.00,,,0.00,Wunderground v.1.15,2013-08-10 05:19:00,
2013-08-09 23:24:00,57.0,48.4,30.02,SW,236,2.0,3.0,73,0.00,,,0.00,Wunderground v.1.15,2013-08-10 05:24:00,
2013-08-09 23:29:00,56.8,48.6,30.02,NE,46,2.0,2.0,74,0.00,,,0.00,Wunderground v.1.15,2013-08-10 05:29:00,
2013-08-09 23:34:00,56.7,48.9,30.02,SW,219,2.0,13.0,75,0.00,,,0.00,Wunderground v.1.15,2013-08-10 05:34:00,
2013-08-09 23:44:00,56.4,48.9,30.02,ENE,77,1.0,13.0,76,0.00,,,0.00,Wunderground v.1.15,2013-08-10 05:44:00,
2013-08-09 23:49:00,56.3,49.2,30.02,SSE,166,1.0,13.0,77,0.00,,,0.00,Wunderground v.1.15,2013-08-10 05:49:00,
2013-08-09 23:54:00,56.3,49.2,30.02,ENE,57,1.0,13.0,77,0.00,,,0.00,Wunderground v.1.15,2013-08-10 05:54:00,